createdAt,value
2022-12-31T00:01:35.694Z,3.71
2022-12-31T00:04:38.154Z,3.56
2022-12-31T00:10:41.883Z,3.65
2022-12-31T00:13:45.957Z,3.61
2022-12-31T00:16:48.305Z,3.50
2022-12-31T00:19:50.843Z,3.59
2022-12-31T00:22:53.269Z,3.72
2022-12-31T00:25:56.094Z,3.69
2022-12-31T00:28:59.989Z,3.66
2022-12-31T00:32:02.324Z,3.63
2022-12-31T00:35:05.045Z,3.72
2022-12-31T00:38:07.360Z,3.68
2022-12-31T00:41:10.532Z,3.69
2022-12-31T00:44:13.432Z,3.76
2022-12-31T00:47:15.844Z,3.84
2022-12-31T00:50:18.204Z,3.79
2022-12-31T00:53:21.033Z,3.76
2022-12-31T00:56:27.857Z,3.88
2022-12-31T00:59:30.280Z,3.85
2022-12-31T01:02:33.452Z,3.79
2022-12-31T01:05:37.162Z,3.83
2022-12-31T01:08:39.683Z,3.86
2022-12-31T01:11:42.656Z,4.03
2022-12-31T01:14:45.112Z,4.10
2022-12-31T01:17:47.563Z,4.07
2022-12-31T01:20:49.925Z,3.95
2022-12-31T01:23:52.222Z,4.16
2022-12-31T01:26:57.987Z,4.33
2022-12-31T01:30:01.455Z,4.11
2022-12-31T01:33:03.897Z,4.26
2022-12-31T01:36:09.420Z,4.36
2022-12-31T01:39:12.112Z,4.24
2022-12-31T01:42:14.395Z,4.19
2022-12-31T01:45:16.716Z,4.30
2022-12-31T01:48:23.542Z,4.31
2022-12-31T01:51:28.178Z,4.26
2022-12-31T01:54:33.768Z,4.27
2022-12-31T01:57:37.308Z,4.16
2022-12-31T02:00:39.750Z,4.36
2022-12-31T02:03:42.171Z,4.35
2022-12-31T02:06:52.587Z,4.32
2022-12-31T02:09:55.058Z,4.47
2022-12-31T02:12:57.527Z,4.46
2022-12-31T02:16:32.291Z,4.46
2022-12-31T02:19:43.456Z,4.63
2022-12-31T02:22:56.557Z,4.62
2022-12-31T02:26:17.580Z,4.62
2022-12-31T02:29:26.029Z,4.46
2022-12-31T02:32:37.815Z,4.71
2022-12-31T02:35:47.901Z,4.69
2022-12-31T02:38:50.437Z,4.72
2022-12-31T02:41:53.940Z,4.67
2022-12-31T02:44:56.303Z,4.71
2022-12-31T02:48:18.350Z,4.80
2022-12-31T02:51:34.531Z,4.71
2022-12-31T02:55:06.257Z,4.77
2022-12-31T02:58:14.395Z,4.79
2022-12-31T03:01:39.703Z,4.74
2022-12-31T03:04:56.283Z,4.79
2022-12-31T03:07:58.641Z,4.91
2022-12-31T03:11:20.888Z,4.86
2022-12-31T03:14:23.147Z,4.87
2022-12-31T03:17:25.664Z,4.89
2022-12-31T03:20:52.284Z,4.86
2022-12-31T03:24:13.307Z,4.93
2022-12-31T03:27:15.743Z,4.83
2022-12-31T03:30:19.434Z,5.06
2022-12-31T03:33:23.440Z,5.06
2022-12-31T03:36:26.147Z,5.15
2022-12-31T03:39:28.425Z,5.15
2022-12-31T03:42:30.750Z,5.19
2022-12-31T03:45:34.501Z,5.19
2022-12-31T03:48:40.070Z,5.38
2022-12-31T03:51:42.434Z,5.10
2022-12-31T03:54:44.873Z,5.10
2022-12-31T03:57:47.458Z,5.04
2022-12-31T04:00:50.374Z,5.23
2022-12-31T04:03:52.815Z,5.26
2022-12-31T04:06:55.284Z,5.07
2022-12-31T04:09:58.284Z,4.96
2022-12-31T04:13:02.544Z,5.19
2022-12-31T04:16:04.875Z,5.28
2022-12-31T04:19:07.937Z,5.21
2022-12-31T04:22:10.351Z,5.19
2022-12-31T04:25:13.098Z,5.19
2022-12-31T04:28:15.498Z,5.31
2022-12-31T04:31:18.366Z,5.47
2022-12-31T04:34:21.094Z,5.37
2022-12-31T04:37:23.396Z,5.60
2022-12-31T04:40:25.759Z,5.58
2022-12-31T04:43:28.355Z,5.72
2022-12-31T04:46:32.786Z,5.79
2022-12-31T04:49:35.171Z,5.85
2022-12-31T04:52:42.697Z,5.84
2022-12-31T04:55:46.399Z,5.84
2022-12-31T04:58:48.685Z,5.84
2022-12-31T05:01:51.284Z,5.81
2022-12-31T05:04:53.783Z,5.81
2022-12-31T05:07:56.283Z,5.96
2022-12-31T05:10:59.142Z,5.95
2022-12-31T05:14:01.517Z,6.01
2022-12-31T05:17:03.790Z,6.03
2022-12-31T05:20:07.109Z,6.01
2022-12-31T05:23:09.625Z,6.10
2022-12-31T05:26:11.962Z,5.97
2022-12-31T05:29:15.391Z,6.10
2022-12-31T05:32:17.939Z,6.14
2022-12-31T05:35:20.190Z,6.12
2022-12-31T05:38:22.515Z,6.25
2022-12-31T05:41:24.964Z,6.13
2022-12-31T05:44:27.709Z,6.24
2022-12-31T05:47:30.024Z,6.29
2022-12-31T05:50:32.441Z,6.33
2022-12-31T05:53:39.528Z,6.41
2022-12-31T05:56:42.019Z,6.35
2022-12-31T05:59:44.308Z,6.49
2022-12-31T06:02:46.796Z,6.23
2022-12-31T06:05:49.114Z,6.13
2022-12-31T06:08:52.405Z,6.20
2022-12-31T06:11:54.691Z,6.17
2022-12-31T06:14:57.109Z,6.32
2022-12-31T06:17:59.484Z,6.40
2022-12-31T06:21:01.870Z,6.17
2022-12-31T06:24:04.495Z,6.38
2022-12-31T06:27:06.794Z,6.47
2022-12-31T06:30:10.053Z,6.38
2022-12-31T06:33:12.564Z,6.68
2022-12-31T06:36:16.253Z,6.55
2022-12-31T06:39:19.341Z,6.57
2022-12-31T06:42:21.861Z,6.57
2022-12-31T06:45:24.363Z,6.70
2022-12-31T06:48:26.688Z,6.51
2022-12-31T06:51:29.033Z,6.40
2022-12-31T06:54:31.536Z,6.53
2022-12-31T06:57:35.547Z,6.59
2022-12-31T07:00:38.147Z,6.63
2022-12-31T07:03:46.442Z,6.67
2022-12-31T07:07:17.978Z,6.76
2022-12-31T07:10:55.401Z,6.83
2022-12-31T07:14:16.122Z,6.84
2022-12-31T07:17:36.420Z,6.88
2022-12-31T07:20:39.227Z,6.91
2022-12-31T07:23:42.786Z,6.87
2022-12-31T07:27:06.798Z,6.95
2022-12-31T07:30:17.016Z,6.84
2022-12-31T07:33:19.320Z,7.01
2022-12-31T07:36:21.711Z,7.09
2022-12-31T07:39:36.227Z,7.08
2022-12-31T07:42:51.950Z,7.16
2022-12-31T07:46:15.901Z,7.37
2022-12-31T07:49:18.575Z,7.14
2022-12-31T07:52:22.093Z,7.24
2022-12-31T07:55:24.421Z,7.36
2022-12-31T07:58:58.997Z,7.34
2022-12-31T08:02:23.043Z,7.44
2022-12-31T08:05:44.985Z,7.46
2022-12-31T08:09:01.995Z,7.59
2022-12-31T08:12:04.692Z,7.61
2022-12-31T08:15:33.643Z,7.59
2022-12-31T08:18:36.312Z,7.53
2022-12-31T08:22:15.629Z,7.56
2022-12-31T08:25:24.443Z,7.58
2022-12-31T08:28:37.146Z,7.65
2022-12-31T08:32:06.566Z,7.76
2022-12-31T08:35:31.558Z,7.83
2022-12-31T08:38:33.807Z,7.81
2022-12-31T08:41:46.001Z,8.02
2022-12-31T08:45:14.302Z,8.00
2022-12-31T08:48:39.679Z,8.05
2022-12-31T08:51:42.426Z,8.06
2022-12-31T08:54:45.063Z,8.08
2022-12-31T08:58:26.061Z,8.02
2022-12-31T09:01:33.749Z,8.05
2022-12-31T09:04:51.805Z,7.89
2022-12-31T09:07:57.171Z,7.99
2022-12-31T09:11:17.679Z,8.07
2022-12-31T09:14:35.372Z,8.13
2022-12-31T09:17:50.041Z,7.94
2022-12-31T09:20:52.624Z,7.97
2022-12-31T09:23:55.193Z,8.10
2022-12-31T09:27:03.653Z,7.97
2022-12-31T09:30:10.072Z,8.02
2022-12-31T09:33:30.901Z,8.05
2022-12-31T09:36:38.993Z,8.09
2022-12-31T09:39:43.607Z,7.90
2022-12-31T09:43:04.399Z,7.69
2022-12-31T09:46:34.458Z,7.85
2022-12-31T09:50:16.243Z,7.75
2022-12-31T09:53:40.296Z,7.55
2022-12-31T09:57:05.370Z,7.52
2022-12-31T10:00:29.058Z,7.53
2022-12-31T10:03:41.505Z,7.33
2022-12-31T10:06:43.823Z,7.45
2022-12-31T10:09:48.995Z,7.47
2022-12-31T10:13:20.295Z,7.50
2022-12-31T10:16:29.335Z,7.55
2022-12-31T10:20:02.689Z,7.67
2022-12-31T10:23:19.354Z,7.76
2022-12-31T10:26:40.193Z,7.75
2022-12-31T10:30:04.552Z,7.73
2022-12-31T10:33:09.663Z,7.87
2022-12-31T10:36:21.205Z,7.83
2022-12-31T10:39:26.548Z,7.89
2022-12-31T10:42:37.081Z,7.71
2022-12-31T10:46:03.804Z,7.74
2022-12-31T10:49:46.566Z,7.75
2022-12-31T10:52:48.924Z,7.59
2022-12-31T10:56:15.648Z,7.73
2022-12-31T10:59:25.595Z,7.69
2022-12-31T11:02:46.031Z,7.81
2022-12-31T11:05:57.557Z,7.89
2022-12-31T11:09:34.854Z,7.99
2022-12-31T11:12:55.331Z,7.92
2022-12-31T11:16:15.743Z,8.07
2022-12-31T11:19:29.903Z,7.89
2022-12-31T11:22:38.059Z,7.92
2022-12-31T11:25:43.052Z,8.04
2022-12-31T11:28:48.066Z,8.11
2022-12-31T11:32:51.754Z,8.10
2022-12-31T11:36:29.515Z,8.29
2022-12-31T11:39:46.787Z,8.28
2022-12-31T11:43:30.028Z,8.33
2022-12-31T11:47:14.604Z,8.42
2022-12-31T11:50:22.951Z,8.50
2022-12-31T11:54:01.294Z,8.74
2022-12-31T11:57:22.568Z,8.92
2022-12-31T12:00:26.986Z,9.00
2022-12-31T12:03:29.900Z,9.13
2022-12-31T12:06:34.018Z,9.29
2022-12-31T12:09:36.424Z,9.48
2022-12-31T12:12:42.875Z,9.49
2022-12-31T12:16:14.410Z,9.78
2022-12-31T12:19:19.656Z,9.96
2022-12-31T12:22:24.805Z,9.79
2022-12-31T12:25:37.159Z,9.98
2022-12-31T12:28:45.450Z,9.99
2022-12-31T12:32:00.214Z,10.11
2022-12-31T12:35:14.028Z,10.12
2022-12-31T12:38:18.655Z,10.20
2022-12-31T12:41:25.334Z,10.16
2022-12-31T12:44:27.787Z,10.13
2022-12-31T12:47:30.581Z,10.22
2022-12-31T12:50:42.734Z,10.16
2022-12-31T12:54:03.225Z,10.27
2022-12-31T12:57:08.406Z,10.47
2022-12-31T13:00:25.131Z,10.37
2022-12-31T13:04:23.815Z,10.55
2022-12-31T13:07:20.158Z,10.44
2022-12-31T13:10:40.628Z,10.44
2022-12-31T13:14:04.559Z,10.52
2022-12-31T13:17:28.460Z,10.55
2022-12-31T13:20:50.965Z,10.50
2022-12-31T13:24:23.448Z,10.53
2022-12-31T13:27:38.749Z,10.58
2022-12-31T13:30:44.551Z,10.69
2022-12-31T13:33:51.261Z,10.54
2022-12-31T13:36:55.070Z,10.65
2022-12-31T13:40:08.218Z,10.76
2022-12-31T13:43:50.549Z,10.68
2022-12-31T13:47:13.008Z,10.70
2022-12-31T13:50:40.167Z,10.86
2022-12-31T13:53:50.371Z,10.89
2022-12-31T13:56:53.603Z,10.93
2022-12-31T14:00:00.247Z,10.80
2022-12-31T14:03:14.161Z,10.89
2022-12-31T14:07:04.504Z,10.91
2022-12-31T14:10:17.263Z,10.91
2022-12-31T14:13:34.743Z,10.94
2022-12-31T14:16:40.241Z,10.96
2022-12-31T14:19:55.516Z,11.14
2022-12-31T14:23:35.177Z,11.09
2022-12-31T14:26:50.740Z,11.01
2022-12-31T14:29:58.963Z,11.17
2022-12-31T14:33:24.652Z,11.18
2022-12-31T14:36:51.540Z,11.19
2022-12-31T14:40:05.939Z,11.07
2022-12-31T14:43:19.951Z,11.12
2022-12-31T14:46:49.920Z,11.15
2022-12-31T14:50:11.280Z,11.10
2022-12-31T14:53:31.569Z,11.07
2022-12-31T14:56:43.965Z,10.94
2022-12-31T14:59:58.133Z,10.96
2022-12-31T15:03:13.998Z,11.09
2022-12-31T15:06:34.993Z,11.06
2022-12-31T15:09:44.922Z,11.02
2022-12-31T15:13:22.479Z,10.98
2022-12-31T15:16:47.781Z,11.12
2022-12-31T15:20:29.318Z,11.16
2022-12-31T15:23:40.047Z,11.28
2022-12-31T15:26:48.715Z,11.29
2022-12-31T15:29:51.152Z,11.24
2022-12-31T15:32:55.892Z,11.42
2022-12-31T15:35:59.127Z,11.25
2022-12-31T15:39:33.717Z,11.27
2022-12-31T15:42:49.466Z,11.22
2022-12-31T15:45:54.572Z,11.31
2022-12-31T15:49:20.713Z,11.27
2022-12-31T15:52:27.496Z,11.25
2022-12-31T15:55:34.931Z,11.29
2022-12-31T15:58:37.475Z,11.23
2022-12-31T16:01:42.410Z,11.24
2022-12-31T16:04:45.076Z,11.20
2022-12-31T16:07:47.658Z,11.39
2022-12-31T16:10:50.052Z,11.28
2022-12-31T16:13:55.030Z,11.26
2022-12-31T16:16:59.282Z,11.30
2022-12-31T16:20:25.641Z,11.30
2022-12-31T16:23:28.415Z,11.46
2022-12-31T16:26:43.123Z,11.49
2022-12-31T16:29:53.966Z,11.17
2022-12-31T16:33:01.866Z,11.00
2022-12-31T16:36:05.259Z,10.96
2022-12-31T16:39:36.224Z,11.02
2022-12-31T16:42:44.285Z,10.92
2022-12-31T16:45:47.086Z,11.08
2022-12-31T16:48:54.081Z,11.17
2022-12-31T16:52:04.406Z,11.34
2022-12-31T16:55:12.578Z,11.41
2022-12-31T16:58:14.863Z,11.47
2022-12-31T17:01:19.927Z,11.41
2022-12-31T17:04:23.851Z,11.08
2022-12-31T17:07:32.430Z,11.15
2022-12-31T17:10:36.601Z,11.15
2022-12-31T17:13:39.106Z,11.14
2022-12-31T17:16:41.415Z,11.25
2022-12-31T17:19:49.698Z,11.39
2022-12-31T17:22:54.515Z,11.44
2022-12-31T17:26:01.677Z,11.45
2022-12-31T17:29:06.230Z,11.43
2022-12-31T17:32:37.017Z,11.49
2022-12-31T17:35:42.432Z,11.55
2022-12-31T17:38:44.783Z,11.31
2022-12-31T17:41:48.224Z,11.35
2022-12-31T17:44:50.604Z,11.29
2022-12-31T17:47:54.069Z,11.41
2022-12-31T17:50:59.414Z,11.34
2022-12-31T17:54:01.898Z,11.27
2022-12-31T17:57:04.437Z,11.35
2022-12-31T18:00:07.392Z,11.23
2022-12-31T18:03:14.702Z,11.07
2022-12-31T18:06:19.789Z,11.03
2022-12-31T18:09:22.257Z,10.93
2022-12-31T18:12:24.608Z,10.99
2022-12-31T18:15:27.095Z,10.84
2022-12-31T18:18:32.745Z,10.65
2022-12-31T18:21:36.199Z,10.80
2022-12-31T18:24:38.632Z,10.83
2022-12-31T18:27:42.236Z,10.70
2022-12-31T18:30:45.130Z,10.57
2022-12-31T18:33:48.584Z,10.32
2022-12-31T18:36:50.991Z,10.53
2022-12-31T18:39:53.428Z,10.41
2022-12-31T18:43:01.153Z,10.51
2022-12-31T18:46:06.999Z,10.54
2022-12-31T18:49:13.384Z,10.73
2022-12-31T18:52:21.757Z,10.76
2022-12-31T18:55:34.543Z,10.81
2022-12-31T18:58:36.858Z,10.88
2022-12-31T19:01:40.523Z,10.88
2022-12-31T19:04:43.055Z,11.03
2022-12-31T19:07:45.561Z,11.15
2022-12-31T19:10:49.147Z,11.22
2022-12-31T19:13:51.533Z,11.23
2022-12-31T19:16:55.095Z,11.30
2022-12-31T19:20:01.876Z,11.31
2022-12-31T19:23:04.333Z,11.31
2022-12-31T19:26:06.854Z,11.10
2022-12-31T19:29:17.324Z,11.02
2022-12-31T19:32:19.725Z,10.96
2022-12-31T19:35:22.801Z,11.17
2022-12-31T19:38:26.405Z,11.13
2022-12-31T19:41:28.913Z,11.38
2022-12-31T19:44:31.313Z,11.39
2022-12-31T19:47:33.708Z,11.46
2022-12-31T19:50:36.108Z,11.50
2022-12-31T19:53:39.136Z,11.68
2022-12-31T19:56:41.546Z,11.76
2022-12-31T19:59:43.946Z,11.72
2022-12-31T20:02:48.050Z,11.86
2022-12-31T20:05:50.704Z,11.92
2022-12-31T20:08:53.054Z,11.77
2022-12-31T20:11:55.417Z,11.87
2022-12-31T20:14:57.763Z,11.93
2022-12-31T20:18:00.558Z,12.08
2022-12-31T20:21:02.929Z,12.09
2022-12-31T20:24:05.619Z,12.12
2022-12-31T20:27:10.989Z,12.09
2022-12-31T20:30:19.623Z,12.37
2022-12-31T20:33:22.629Z,12.13
2022-12-31T20:36:25.895Z,12.10
2022-12-31T20:39:28.325Z,12.34
2022-12-31T20:42:30.796Z,12.38
2022-12-31T20:45:33.119Z,12.29
2022-12-31T20:48:35.463Z,12.30
2022-12-31T20:51:38.034Z,12.35
2022-12-31T20:54:40.467Z,12.36
2022-12-31T20:57:42.857Z,12.39
2022-12-31T21:00:52.362Z,12.21
2022-12-31T21:04:05.308Z,12.20
2022-12-31T21:07:08.476Z,12.07
2022-12-31T21:10:10.872Z,12.02
2022-12-31T21:13:13.232Z,12.06
2022-12-31T21:16:15.624Z,12.07
2022-12-31T21:19:18.213Z,11.90
2022-12-31T21:22:20.751Z,12.15
2022-12-31T21:25:23.082Z,12.06
2022-12-31T21:28:26.112Z,12.00
2022-12-31T21:31:28.534Z,12.08
2022-12-31T21:34:30.860Z,11.89
2022-12-31T21:37:58.802Z,11.82
2022-12-31T21:40:56.109Z,11.93
2022-12-31T21:43:58.490Z,11.79
2022-12-31T21:47:41.257Z,11.81
2022-12-31T21:50:43.582Z,11.53
2022-12-31T21:53:45.957Z,11.72
2022-12-31T21:56:48.295Z,11.65
2022-12-31T22:00:40.297Z,11.70
2022-12-31T22:03:32.997Z,11.79
2022-12-31T22:06:36.893Z,11.52
2022-12-31T22:09:39.220Z,11.72
2022-12-31T22:12:41.615Z,11.45
2022-12-31T22:15:45.760Z,11.25
2022-12-31T22:18:48.655Z,11.36
2022-12-31T22:21:51.099Z,11.27
2022-12-31T22:24:53.469Z,11.22
2022-12-31T22:28:36.282Z,11.23
2022-12-31T22:31:25.184Z,11.18
2022-12-31T22:34:27.621Z,11.23
2022-12-31T22:40:52.529Z,11.23
2022-12-31T22:44:03.080Z,11.30
2022-12-31T22:47:06.243Z,11.25
2022-12-31T22:50:08.994Z,11.20
2022-12-31T22:53:11.340Z,11.20
2022-12-31T22:56:16.125Z,11.17
2022-12-31T22:59:18.529Z,11.19
2022-12-31T23:02:21.242Z,11.29
2022-12-31T23:05:24.173Z,11.42
2022-12-31T23:08:27.683Z,11.44
2022-12-31T23:11:30.590Z,11.44
2022-12-31T23:14:51.638Z,11.42
2022-12-31T23:18:12.789Z,11.42
2022-12-31T23:21:35.199Z,11.58
2022-12-31T23:24:37.684Z,11.50
2022-12-31T23:27:40.063Z,11.43
2022-12-31T23:30:43.145Z,11.51
2022-12-31T23:33:45.486Z,11.40
2022-12-31T23:36:47.748Z,11.47
2022-12-31T23:39:50.087Z,11.51
2022-12-31T23:42:52.396Z,11.45
2022-12-31T23:45:54.899Z,11.32
2022-12-31T23:48:57.285Z,11.36
2022-12-31T23:51:59.564Z,11.34
2022-12-31T23:55:03.706Z,11.36
2022-12-31T23:58:06.105Z,11.30
